createdAt,value
2017-09-17T00:00:32.905Z,7.80
2017-09-17T00:03:02.110Z,7.70
2017-09-17T00:05:31.269Z,7.70
2017-09-17T00:07:59.686Z,7.70
2017-09-17T00:10:28.845Z,7.70
2017-09-17T00:12:57.245Z,7.70
2017-09-17T00:15:25.661Z,7.80
2017-09-17T00:17:54.057Z,7.80
2017-09-17T00:20:22.448Z,7.80
2017-09-17T00:22:50.856Z,7.80
2017-09-17T00:25:19.254Z,7.90
2017-09-17T00:27:48.420Z,7.90
2017-09-17T00:30:17.038Z,7.90
2017-09-17T00:32:46.724Z,7.90
2017-09-17T00:35:16.199Z,7.90
2017-09-17T00:37:46.679Z,7.90
2017-09-17T00:40:15.644Z,7.90
2017-09-17T00:42:44.257Z,7.90
2017-09-17T00:45:12.669Z,7.90
2017-09-17T00:47:41.068Z,7.90
2017-09-17T00:50:09.120Z,7.90
2017-09-17T00:52:36.654Z,7.90
2017-09-17T00:55:04.171Z,8.00
2017-09-17T00:57:32.266Z,8.00
2017-09-17T01:00:01.457Z,8.00
2017-09-17T01:02:30.619Z,7.90
2017-09-17T01:04:59.020Z,7.90
2017-09-17T01:07:28.200Z,7.90
2017-09-17T01:09:56.633Z,8.00
2017-09-17T01:12:25.027Z,7.90
2017-09-17T01:14:54.578Z,7.90
2017-09-17T01:17:25.728Z,7.90
2017-09-17T01:19:54.913Z,7.90
2017-09-17T01:22:24.266Z,7.90
2017-09-17T01:24:53.132Z,7.90
2017-09-17T01:27:21.579Z,7.90
2017-09-17T01:29:50.073Z,7.90
2017-09-17T01:32:19.251Z,7.80
2017-09-17T01:34:47.639Z,7.80
2017-09-17T01:37:16.810Z,7.80
2017-09-17T01:39:45.213Z,7.80
2017-09-17T01:42:14.371Z,7.70
2017-09-17T01:44:42.773Z,7.70
2017-09-17T01:47:11.165Z,7.70
2017-09-17T01:49:40.329Z,7.60
2017-09-17T01:52:08.734Z,7.60
2017-09-17T01:54:37.131Z,7.60
2017-09-17T01:57:06.287Z,7.60
2017-09-17T01:59:34.700Z,7.60
2017-09-17T02:02:04.647Z,7.60
2017-09-17T02:04:33.081Z,7.60
2017-09-17T02:07:02.538Z,7.90
2017-09-17T02:09:32.691Z,7.90
2017-09-17T02:12:01.947Z,7.90
2017-09-17T02:14:31.261Z,7.90
2017-09-17T02:16:59.764Z,8.00
2017-09-17T02:19:28.943Z,7.90
2017-09-17T02:21:57.434Z,7.90
2017-09-17T02:24:25.831Z,7.80
2017-09-17T02:26:54.217Z,7.80
2017-09-17T02:29:22.625Z,7.80
2017-09-17T02:31:51.106Z,7.80
2017-09-17T02:34:19.521Z,7.80
2017-09-17T02:36:47.932Z,7.80
2017-09-17T02:39:17.096Z,7.80
2017-09-17T02:41:45.500Z,7.80
2017-09-17T02:44:15.425Z,7.80
2017-09-17T02:46:44.593Z,7.90
2017-09-17T02:49:12.988Z,7.90
2017-09-17T02:51:41.506Z,7.90
2017-09-17T02:54:10.070Z,7.80
2017-09-17T02:56:40.547Z,7.90
2017-09-17T02:59:10.105Z,7.90
2017-09-17T03:01:39.149Z,7.90
2017-09-17T03:04:11.471Z,7.80
2017-09-17T03:06:40.171Z,7.80
2017-09-17T03:09:08.580Z,7.80
2017-09-17T03:11:36.972Z,7.70
2017-09-17T03:14:05.399Z,7.80
2017-09-17T03:16:33.864Z,7.70
2017-09-17T03:19:02.842Z,7.70
2017-09-17T03:21:31.256Z,7.70
2017-09-17T03:23:59.784Z,7.80
2017-09-17T03:26:28.168Z,7.80
2017-09-17T03:28:57.340Z,7.80
2017-09-17T03:31:25.784Z,7.80
2017-09-17T03:33:54.276Z,7.80
2017-09-17T03:36:22.676Z,7.80
2017-09-17T03:38:50.881Z,7.70
2017-09-17T03:41:20.731Z,7.70
2017-09-17T03:43:49.350Z,7.70
2017-09-17T03:46:18.602Z,7.70
2017-09-17T03:48:47.760Z,7.70
2017-09-17T03:51:16.496Z,7.70
2017-09-17T03:53:44.882Z,7.70
2017-09-17T03:56:13.282Z,7.70
2017-09-17T03:58:41.933Z,7.70
2017-09-17T04:01:10.317Z,7.70
2017-09-17T04:03:38.709Z,7.70
2017-09-17T04:06:07.141Z,7.70
2017-09-17T04:08:36.296Z,7.80
2017-09-17T04:11:04.681Z,7.70
2017-09-17T04:13:33.093Z,7.80
2017-09-17T04:16:02.279Z,7.80
2017-09-17T04:18:30.669Z,7.80
2017-09-17T04:20:59.831Z,7.80
2017-09-17T04:23:28.264Z,7.80
2017-09-17T04:25:57.617Z,7.80
2017-09-17T04:28:26.029Z,7.80
2017-09-17T04:30:56.391Z,7.80
2017-09-17T04:33:25.285Z,7.80
2017-09-17T04:35:54.320Z,7.70
2017-09-17T04:38:24.079Z,7.70
2017-09-17T04:40:52.539Z,7.70
2017-09-17T04:43:20.961Z,7.70
2017-09-17T04:45:49.359Z,7.70
2017-09-17T04:48:17.764Z,7.70
2017-09-17T04:50:46.937Z,7.70
2017-09-17T04:53:15.334Z,7.60
2017-09-17T04:55:44.497Z,7.70
2017-09-17T04:58:12.897Z,7.70
2017-09-17T05:00:41.289Z,7.70
2017-09-17T05:03:10.445Z,7.70
2017-09-17T05:05:38.853Z,7.70
2017-09-17T05:08:08.020Z,7.70
2017-09-17T05:10:36.417Z,7.70
2017-09-17T05:13:04.872Z,7.80
2017-09-17T05:15:33.260Z,7.80
2017-09-17T05:18:01.658Z,7.80
2017-09-17T05:20:30.076Z,7.80
2017-09-17T05:22:58.477Z,7.90
2017-09-17T05:25:26.864Z,7.90
2017-09-17T05:27:55.276Z,8.00
2017-09-17T05:30:24.433Z,8.20
2017-09-17T05:32:52.897Z,8.20
2017-09-17T05:35:21.348Z,8.30
2017-09-17T05:37:50.319Z,8.50
2017-09-17T05:40:19.476Z,8.50
2017-09-17T05:42:47.871Z,8.50
2017-09-17T05:45:16.267Z,8.50
2017-09-17T05:47:44.687Z,8.60
2017-09-17T05:50:13.695Z,8.60
2017-09-17T05:52:42.092Z,8.70
2017-09-17T05:55:10.480Z,8.80
2017-09-17T05:57:38.901Z,8.80
2017-09-17T06:00:07.301Z,8.90
2017-09-17T06:02:35.684Z,9.00
2017-09-17T06:05:04.093Z,9.10
2017-09-17T06:07:32.476Z,9.20
2017-09-17T06:10:00.883Z,9.20
2017-09-17T06:12:29.704Z,9.40
2017-09-17T06:14:58.100Z,9.40
2017-09-17T06:17:26.496Z,9.50
2017-09-17T06:19:54.905Z,9.60
2017-09-17T06:22:26.214Z,9.80
2017-09-17T06:24:55.404Z,9.90
2017-09-17T06:27:23.992Z,9.90
2017-09-17T06:29:52.392Z,10.00
2017-09-17T06:32:21.564Z,9.90
2017-09-17T06:34:50.036Z,9.90
2017-09-17T06:37:18.557Z,10.00
2017-09-17T06:39:47.828Z,10.20
2017-09-17T06:42:16.643Z,10.20
2017-09-17T06:44:46.693Z,10.20
2017-09-17T06:47:15.398Z,10.20
2017-09-17T06:49:43.950Z,10.20
2017-09-17T06:52:12.408Z,10.20
2017-09-17T06:54:41.572Z,10.30
2017-09-17T06:57:09.818Z,10.30
2017-09-17T06:59:38.211Z,10.40
2017-09-17T07:02:06.635Z,10.40
2017-09-17T07:04:35.807Z,10.50
2017-09-17T07:07:05.710Z,10.60
2017-09-17T07:09:34.106Z,10.60
2017-09-17T07:12:02.513Z,10.50
2017-09-17T07:14:31.489Z,10.50
2017-09-17T07:17:00.653Z,10.50
2017-09-17T07:19:29.059Z,10.50
2017-09-17T07:21:58.221Z,10.70
2017-09-17T07:24:26.609Z,10.70
2017-09-17T07:26:55.029Z,10.80
2017-09-17T07:29:24.207Z,10.90
2017-09-17T07:31:52.503Z,10.90
2017-09-17T07:34:21.685Z,11.00
2017-09-17T07:36:50.865Z,11.00
2017-09-17T07:39:19.263Z,11.00
2017-09-17T07:41:48.431Z,11.00
2017-09-17T07:44:16.821Z,11.00
2017-09-17T07:46:45.245Z,11.00
2017-09-17T07:49:13.668Z,11.00
2017-09-17T07:51:42.160Z,11.10
2017-09-17T07:54:11.135Z,11.20
2017-09-17T07:56:40.761Z,11.20
2017-09-17T07:59:09.181Z,11.30
2017-09-17T08:01:37.600Z,11.30
2017-09-17T08:04:06.980Z,11.50
2017-09-17T08:06:35.388Z,11.40
2017-09-17T08:09:03.628Z,11.50
2017-09-17T08:11:32.155Z,11.60
2017-09-17T08:14:01.377Z,11.40
2017-09-17T08:16:31.373Z,11.40
2017-09-17T08:19:00.677Z,11.80
2017-09-17T08:21:30.028Z,11.80
2017-09-17T08:23:58.472Z,11.80
2017-09-17T08:26:26.701Z,11.80
2017-09-17T08:28:55.104Z,11.80
2017-09-17T08:31:24.272Z,12.00
2017-09-17T08:33:52.684Z,12.00
2017-09-17T08:36:21.846Z,12.00
2017-09-17T08:38:50.264Z,12.00
2017-09-17T08:41:19.444Z,12.30
2017-09-17T08:43:48.425Z,12.40
2017-09-17T08:46:16.851Z,12.40
2017-09-17T08:48:46.340Z,12.50
2017-09-17T08:51:14.796Z,12.70
2017-09-17T08:53:43.961Z,12.80
2017-09-17T08:56:12.388Z,12.80
2017-09-17T08:58:41.637Z,12.90
2017-09-17T09:01:09.712Z,12.90
2017-09-17T09:03:38.461Z,12.70
2017-09-17T09:06:07.901Z,12.50
2017-09-17T09:08:38.402Z,12.50
2017-09-17T09:11:07.593Z,12.40
2017-09-17T09:13:37.923Z,12.80
2017-09-17T09:16:06.550Z,12.80
2017-09-17T09:18:35.780Z,13.00
2017-09-17T09:21:04.179Z,13.00
2017-09-17T09:23:32.592Z,12.90
2017-09-17T09:26:01.005Z,12.60
2017-09-17T09:28:30.224Z,12.70
2017-09-17T09:30:58.623Z,12.70
2017-09-17T09:33:27.029Z,12.80
2017-09-17T09:35:55.427Z,12.90
2017-09-17T09:38:24.609Z,13.00
2017-09-17T09:40:53.019Z,13.00
2017-09-17T09:43:22.225Z,13.30
2017-09-17T09:45:50.625Z,13.30
2017-09-17T09:48:19.069Z,13.40
2017-09-17T09:50:48.250Z,13.70
2017-09-17T09:53:16.997Z,13.70
2017-09-17T09:55:45.247Z,13.90
2017-09-17T09:58:13.485Z,14.10
2017-09-17T10:00:42.657Z,14.60
2017-09-17T10:03:11.063Z,14.60
2017-09-17T10:05:40.299Z,14.50
2017-09-17T10:08:08.713Z,14.50
2017-09-17T10:10:37.151Z,14.80
2017-09-17T10:13:05.549Z,15.00
2017-09-17T10:15:33.957Z,15.10
2017-09-17T10:18:02.380Z,14.70
2017-09-17T10:20:30.791Z,14.60
2017-09-17T10:22:59.196Z,14.60
2017-09-17T10:25:27.603Z,14.50
2017-09-17T10:27:56.434Z,14.90
2017-09-17T10:30:25.318Z,14.90
2017-09-17T10:32:53.779Z,14.90
2017-09-17T10:35:22.293Z,14.70
2017-09-17T10:37:51.728Z,14.70
2017-09-17T10:40:20.426Z,14.70
2017-09-17T10:42:49.022Z,14.70
2017-09-17T10:45:17.417Z,14.70
2017-09-17T10:47:45.821Z,14.90
2017-09-17T10:50:14.254Z,15.40
2017-09-17T10:52:42.723Z,16.20
2017-09-17T10:55:11.911Z,17.40
2017-09-17T10:57:40.905Z,17.40
2017-09-17T11:00:10.067Z,17.30
2017-09-17T11:02:38.479Z,17.30
2017-09-17T11:05:07.643Z,17.30
2017-09-17T11:07:36.078Z,17.30
2017-09-17T11:10:04.249Z,17.40
2017-09-17T11:12:32.712Z,17.40
2017-09-17T11:15:01.889Z,17.00
2017-09-17T11:17:31.255Z,17.00
2017-09-17T11:20:00.889Z,16.30
2017-09-17T11:22:29.359Z,16.30
2017-09-17T11:25:02.128Z,16.40
2017-09-17T11:27:32.743Z,16.40
2017-09-17T11:30:01.461Z,16.50
2017-09-17T11:32:30.023Z,16.60
2017-09-17T11:34:58.457Z,16.60
2017-09-17T11:37:27.615Z,16.50
2017-09-17T11:39:56.032Z,16.40
2017-09-17T11:42:25.348Z,16.00
2017-09-17T11:44:53.746Z,16.00
2017-09-17T11:47:22.197Z,16.50
2017-09-17T11:49:50.590Z,17.50
2017-09-17T11:52:19.028Z,18.20
2017-09-17T11:54:48.209Z,18.70
2017-09-17T11:57:17.376Z,19.30
2017-09-17T11:59:45.817Z,19.30
2017-09-17T12:02:14.998Z,22.70
2017-09-17T12:04:44.181Z,22.60
2017-09-17T12:07:12.595Z,22.60
2017-09-17T12:09:42.881Z,21.20
2017-09-17T12:12:11.381Z,20.40
2017-09-17T12:14:40.317Z,20.10
2017-09-17T12:17:10.513Z,20.80
2017-09-17T12:19:38.909Z,21.60
2017-09-17T12:22:08.167Z,22.80
2017-09-17T12:24:36.601Z,22.80
2017-09-17T12:27:05.015Z,22.60
2017-09-17T12:29:34.420Z,20.00
2017-09-17T12:32:03.607Z,18.50
2017-09-17T12:34:32.013Z,18.50
2017-09-17T12:37:01.185Z,17.00
2017-09-17T12:39:29.620Z,17.00
2017-09-17T12:41:58.028Z,16.70
2017-09-17T12:44:26.426Z,16.60
2017-09-17T12:46:55.601Z,16.70
2017-09-17T12:49:23.996Z,16.70
2017-09-17T12:51:53.937Z,19.20
2017-09-17T12:54:22.372Z,19.20
2017-09-17T12:56:50.777Z,20.70
2017-09-17T12:59:20.656Z,23.20
2017-09-17T13:01:49.395Z,23.10
2017-09-17T13:04:18.084Z,23.80
2017-09-17T13:06:47.505Z,23.50
2017-09-17T13:09:17.991Z,23.50
2017-09-17T13:11:46.858Z,24.10
2017-09-17T13:14:15.753Z,24.30
2017-09-17T13:16:44.261Z,24.00
2017-09-17T13:19:13.425Z,23.00
2017-09-17T13:21:41.820Z,23.00
2017-09-17T13:24:10.992Z,22.70
2017-09-17T13:26:39.398Z,22.60
2017-09-17T13:29:08.434Z,23.20
2017-09-17T13:31:36.840Z,23.20
2017-09-17T13:34:05.258Z,23.20
2017-09-17T13:36:34.865Z,22.80
2017-09-17T13:39:16.570Z,23.30
2017-09-17T13:41:44.780Z,23.30
2017-09-17T13:44:12.980Z,23.10
2017-09-17T13:46:41.197Z,22.40
2017-09-17T13:49:09.414Z,21.80
2017-09-17T13:51:38.430Z,19.70
2017-09-17T13:54:07.424Z,19.00
2017-09-17T13:56:36.398Z,18.60
2017-09-17T13:59:05.364Z,19.10
2017-09-17T14:01:39.399Z,19.10
2017-09-17T14:07:29.135Z,20.70
2017-09-17T14:09:58.957Z,20.60
2017-09-17T14:12:27.269Z,20.40
2017-09-17T14:14:55.740Z,20.40
2017-09-17T14:17:23.954Z,19.60
2017-09-17T14:19:53.874Z,18.00
2017-09-17T14:22:22.864Z,17.60
2017-09-17T14:24:52.106Z,17.20
2017-09-17T14:27:20.538Z,17.10
2017-09-17T14:29:51.236Z,16.60
2017-09-17T14:32:20.008Z,16.50
2017-09-17T14:34:48.416Z,16.20
2017-09-17T14:37:16.831Z,15.80
2017-09-17T14:39:45.246Z,15.50
2017-09-17T14:42:13.638Z,15.20
2017-09-17T14:44:42.055Z,14.90
2017-09-17T14:47:11.260Z,14.30
2017-09-17T14:49:39.664Z,14.30
2017-09-17T14:52:08.182Z,14.10
2017-09-17T14:54:36.595Z,14.00
2017-09-17T14:57:06.332Z,13.50
2017-09-17T14:59:34.997Z,13.50
2017-09-17T15:02:04.677Z,13.60
2017-09-17T15:04:34.113Z,14.20
2017-09-17T15:07:02.573Z,14.20
2017-09-17T15:09:31.062Z,14.70
2017-09-17T15:11:59.459Z,15.50
2017-09-17T15:14:27.912Z,16.50
2017-09-17T15:16:57.089Z,17.60
2017-09-17T15:19:25.491Z,17.50
2017-09-17T15:21:54.679Z,17.50
2017-09-17T15:24:23.319Z,17.40
2017-09-17T15:26:51.717Z,16.90
2017-09-17T15:29:20.130Z,16.90
2017-09-17T15:31:48.525Z,16.90
2017-09-17T15:34:16.928Z,17.10
2017-09-17T15:36:47.473Z,17.00
2017-09-17T15:39:15.864Z,16.70
2017-09-17T15:41:44.322Z,16.20
2017-09-17T15:44:13.282Z,15.90
2017-09-17T15:46:42.954Z,15.80
2017-09-17T15:49:12.552Z,15.60
2017-09-17T15:51:41.835Z,15.20
2017-09-17T15:54:11.121Z,15.00
2017-09-17T15:56:40.301Z,14.80
2017-09-17T15:59:08.712Z,14.80
2017-09-17T16:01:39.205Z,14.50
2017-09-17T16:04:09.195Z,14.20
2017-09-17T16:06:40.029Z,14.20
2017-09-17T16:09:08.459Z,14.10
2017-09-17T16:11:36.877Z,14.00
2017-09-17T16:14:06.049Z,14.10
2017-09-17T16:16:34.437Z,14.10
2017-09-17T16:19:02.849Z,14.20
2017-09-17T16:21:31.068Z,14.10
2017-09-17T16:23:59.469Z,14.00
2017-09-17T16:26:28.641Z,13.60
2017-09-17T16:28:57.080Z,13.60
2017-09-17T16:31:25.474Z,13.40
2017-09-17T16:33:53.948Z,13.10
2017-09-17T16:36:22.366Z,12.90
2017-09-17T16:38:50.832Z,12.80
2017-09-17T16:41:19.812Z,12.70
2017-09-17T16:43:50.728Z,12.50
2017-09-17T16:46:19.176Z,12.50
2017-09-17T16:48:48.342Z,12.40
2017-09-17T16:51:16.744Z,12.40
2017-09-17T16:53:45.240Z,12.30
2017-09-17T16:56:14.402Z,12.20
2017-09-17T16:58:42.817Z,12.10
2017-09-17T17:01:11.298Z,12.10
2017-09-17T17:03:39.695Z,12.00
2017-09-17T17:06:08.106Z,12.00
2017-09-17T17:08:36.496Z,11.90
2017-09-17T17:11:04.901Z,11.80
2017-09-17T17:13:33.142Z,11.80
2017-09-17T17:16:01.541Z,11.70
2017-09-17T17:18:29.773Z,11.70
2017-09-17T17:20:58.355Z,11.60
2017-09-17T17:23:28.202Z,11.60
2017-09-17T17:25:56.917Z,11.50
2017-09-17T17:28:25.725Z,11.50
2017-09-17T17:30:54.558Z,11.40
2017-09-17T17:33:22.975Z,11.30
2017-09-17T17:35:51.381Z,11.20
2017-09-17T17:38:19.776Z,11.10
2017-09-17T17:40:48.312Z,11.00
2017-09-17T17:43:16.716Z,11.00
2017-09-17T17:45:45.104Z,10.90
2017-09-17T17:48:13.525Z,10.90
2017-09-17T17:50:42.712Z,10.80
2017-09-17T17:53:11.105Z,10.80
2017-09-17T17:55:40.268Z,10.70
2017-09-17T17:58:08.682Z,10.70
2017-09-17T18:00:37.840Z,10.60
2017-09-17T18:03:06.256Z,10.60
2017-09-17T18:05:35.447Z,10.50
2017-09-17T18:08:04.695Z,10.40
2017-09-17T18:10:33.160Z,10.40
2017-09-17T18:13:01.577Z,10.30
2017-09-17T18:15:29.790Z,10.30
2017-09-17T18:17:58.945Z,10.20
2017-09-17T18:20:27.429Z,10.20
2017-09-17T18:22:55.919Z,10.10
2017-09-17T18:25:24.312Z,10.20
2017-09-17T18:27:53.486Z,10.30
2017-09-17T18:30:21.882Z,10.30
2017-09-17T18:32:51.076Z,10.30
2017-09-17T18:35:19.905Z,10.20
2017-09-17T18:37:48.360Z,10.20
2017-09-17T18:40:17.543Z,10.20
2017-09-17T18:42:46.779Z,10.20
2017-09-17T18:45:15.241Z,10.20
2017-09-17T18:47:43.625Z,10.10
2017-09-17T18:50:11.872Z,10.00
2017-09-17T18:52:41.319Z,9.90
2017-09-17T18:55:09.800Z,9.80
2017-09-17T18:57:38.206Z,9.80
2017-09-17T19:00:06.770Z,9.70
2017-09-17T19:02:35.153Z,9.50
2017-09-17T19:05:03.617Z,9.50
2017-09-17T19:07:32.213Z,9.50
2017-09-17T19:10:00.623Z,9.40
2017-09-17T19:12:29.021Z,9.40
2017-09-17T19:14:58.029Z,9.30
2017-09-17T19:17:26.423Z,9.30
2017-09-17T19:19:54.832Z,9.20
2017-09-17T19:22:23.240Z,9.20
2017-09-17T19:24:52.490Z,9.20
2017-09-17T19:27:20.918Z,9.20
2017-09-17T19:29:50.089Z,9.20
2017-09-17T19:32:18.627Z,9.20
2017-09-17T19:34:47.050Z,9.20
2017-09-17T19:37:15.448Z,9.20
2017-09-17T19:39:43.854Z,9.20
2017-09-17T19:42:12.289Z,9.20
2017-09-17T19:44:40.721Z,9.20
2017-09-17T19:47:08.931Z,9.30
2017-09-17T19:49:37.352Z,9.30
2017-09-17T19:52:05.856Z,9.30
2017-09-17T19:54:35.008Z,9.30
2017-09-17T19:57:03.440Z,9.30
2017-09-17T19:59:31.826Z,9.30
2017-09-17T20:02:00.228Z,9.30
2017-09-17T20:04:29.667Z,9.20
2017-09-17T20:06:58.829Z,9.20
2017-09-17T20:09:27.237Z,9.20
2017-09-17T20:11:56.425Z,9.20
2017-09-17T20:14:25.609Z,9.30
2017-09-17T20:16:54.061Z,9.30
2017-09-17T20:19:22.475Z,9.20
2017-09-17T20:21:51.626Z,9.20
2017-09-17T20:24:20.061Z,9.20
2017-09-17T20:26:49.232Z,9.20
2017-09-17T20:29:17.617Z,9.20
2017-09-17T20:31:46.028Z,9.20
2017-09-17T20:34:14.510Z,9.10
2017-09-17T20:36:42.972Z,9.20
2017-09-17T20:39:12.508Z,9.20
2017-09-17T20:41:40.952Z,9.20
2017-09-17T20:44:10.746Z,9.20
2017-09-17T20:46:39.141Z,9.20
2017-09-17T20:49:08.319Z,9.20
2017-09-17T20:51:36.725Z,9.20
2017-09-17T20:54:05.884Z,9.10
2017-09-17T20:56:34.364Z,9.00
2017-09-17T20:59:02.980Z,9.00
2017-09-17T21:01:31.868Z,8.90
2017-09-17T21:04:00.372Z,8.90
2017-09-17T21:06:29.012Z,8.80
2017-09-17T21:08:57.404Z,8.80
2017-09-17T21:11:26.626Z,8.70
2017-09-17T21:13:55.014Z,8.70
2017-09-17T21:16:23.481Z,8.60
2017-09-17T21:18:51.994Z,8.50
2017-09-17T21:21:20.378Z,8.50
2017-09-17T21:23:48.762Z,8.50
2017-09-17T21:26:17.167Z,8.60
2017-09-17T21:28:45.549Z,8.50
2017-09-17T21:31:14.730Z,8.40
2017-09-17T21:33:43.157Z,8.40
2017-09-17T21:36:11.559Z,8.40
2017-09-17T21:38:40.221Z,8.40
2017-09-17T21:41:09.216Z,8.30
2017-09-17T21:43:38.197Z,8.40
2017-09-17T21:46:06.791Z,8.30
2017-09-17T21:48:35.231Z,8.20
2017-09-17T21:51:04.399Z,8.20
2017-09-17T21:53:32.793Z,8.20
2017-09-17T21:56:01.216Z,8.20
2017-09-17T21:58:29.604Z,8.20
2017-09-17T22:00:58.369Z,8.10
2017-09-17T22:03:26.780Z,8.10
2017-09-17T22:05:55.186Z,8.10
2017-09-17T22:08:24.349Z,8.00
2017-09-17T22:10:52.757Z,8.00
2017-09-17T22:13:21.166Z,8.00
2017-09-17T22:15:50.316Z,8.10
2017-09-17T22:18:18.734Z,8.00
2017-09-17T22:20:47.966Z,8.10
2017-09-17T22:23:16.449Z,8.10
2017-09-17T22:25:45.574Z,8.10
2017-09-17T22:28:15.014Z,8.10
2017-09-17T22:30:44.779Z,8.20
2017-09-17T22:33:13.193Z,8.20
2017-09-17T22:35:42.349Z,8.20
2017-09-17T22:38:10.736Z,8.20
2017-09-17T22:40:39.144Z,8.30
2017-09-17T22:43:08.300Z,8.40
2017-09-17T22:45:36.690Z,8.40
2017-09-17T22:48:05.095Z,8.40
2017-09-17T22:50:33.489Z,8.50
2017-09-17T22:53:02.644Z,8.60
2017-09-17T22:55:31.045Z,8.60
2017-09-17T22:57:59.425Z,8.60
2017-09-17T23:00:28.227Z,8.70
2017-09-17T23:02:57.398Z,8.70
2017-09-17T23:05:26.632Z,8.70
2017-09-17T23:07:55.293Z,8.70
2017-09-17T23:10:25.763Z,8.80
2017-09-17T23:12:54.937Z,8.90
2017-09-17T23:15:24.705Z,8.80
2017-09-17T23:17:55.307Z,8.90
2017-09-17T23:20:25.626Z,8.90
2017-09-17T23:22:55.548Z,9.00
2017-09-17T23:25:26.485Z,9.10
2017-09-17T23:27:56.504Z,9.10
2017-09-17T23:30:25.287Z,9.20
2017-09-17T23:32:53.831Z,9.10
2017-09-17T23:35:22.236Z,9.10
2017-09-17T23:37:50.630Z,9.10
2017-09-17T23:40:19.268Z,9.10
2017-09-17T23:42:48.420Z,9.20
2017-09-17T23:45:16.804Z,9.20
2017-09-17T23:47:45.204Z,9.20
2017-09-17T23:50:14.367Z,9.10
2017-09-17T23:52:42.754Z,9.10
2017-09-17T23:55:10.972Z,9.10
2017-09-17T23:57:39.445Z,9.10
